createdAt,value
2018-11-28T00:00:41.850Z,22.20
2018-11-28T00:03:10.830Z,22.80
2018-11-28T00:05:39.815Z,22.77
2018-11-28T00:08:24.476Z,22.83
2018-11-28T00:10:53.589Z,22.83
2018-11-28T00:13:22.567Z,21.47
2018-11-28T00:15:51.869Z,22.20
2018-11-28T00:18:20.899Z,24.93
2018-11-28T00:20:49.942Z,22.80
2018-11-28T00:23:19.001Z,22.60
2018-11-28T00:25:47.977Z,22.43
2018-11-28T00:28:16.974Z,22.40
2018-11-28T00:30:46.098Z,21.70
2018-11-28T00:33:15.086Z,22.77
2018-11-28T00:35:45.021Z,23.53
2018-11-28T00:38:14.046Z,22.70
2018-11-28T00:40:43.036Z,21.23
2018-11-28T00:43:12.049Z,22.23
2018-11-28T00:45:41.637Z,22.30
2018-11-28T00:48:10.606Z,22.50
2018-11-28T00:50:40.801Z,21.93
2018-11-28T00:53:09.868Z,23.00
2018-11-28T00:55:38.862Z,22.00
2018-11-28T00:58:07.906Z,21.67
2018-11-28T01:00:37.029Z,21.97
2018-11-28T01:03:06.049Z,20.47
2018-11-28T01:05:35.074Z,21.93
2018-11-28T01:08:04.421Z,21.47
2018-11-28T01:10:33.422Z,21.23
2018-11-28T01:13:02.414Z,20.03
2018-11-28T01:15:31.535Z,20.80
2018-11-28T01:18:01.410Z,18.77
2018-11-28T01:20:31.251Z,18.23
2018-11-28T01:23:00.246Z,19.77
2018-11-28T01:25:29.229Z,19.40
2018-11-28T01:27:58.851Z,19.60
2018-11-28T01:30:28.115Z,19.63
2018-11-28T01:32:57.810Z,18.40
2018-11-28T01:35:26.857Z,18.27
2018-11-28T01:37:55.902Z,18.00
2018-11-28T01:40:25.170Z,18.50
2018-11-28T01:42:54.651Z,17.53
2018-11-28T01:45:25.321Z,17.87
2018-11-28T01:47:54.564Z,18.53
2018-11-28T01:50:23.584Z,16.47
2018-11-28T01:52:53.460Z,17.83
2018-11-28T01:55:23.472Z,16.67
2018-11-28T01:57:53.303Z,16.37
2018-11-28T02:00:24.634Z,15.37
2018-11-28T02:03:01.992Z,13.97
2018-11-28T02:05:32.982Z,14.07
2018-11-28T02:08:02.062Z,14.33
2018-11-28T02:10:31.094Z,13.47
2018-11-28T02:13:00.160Z,13.50
2018-11-28T02:15:29.143Z,13.03
2018-11-28T02:17:58.636Z,12.83
2018-11-28T02:20:27.629Z,12.33
2018-11-28T02:22:56.632Z,12.43
2018-11-28T02:25:26.014Z,12.50
2018-11-28T02:27:55.034Z,12.27
2018-11-28T02:30:24.980Z,12.27
2018-11-28T02:32:55.161Z,12.97
2018-11-28T02:35:24.293Z,12.80
2018-11-28T02:37:53.294Z,12.83
2018-11-28T02:40:23.083Z,13.10
2018-11-28T02:42:52.678Z,13.10
2018-11-28T02:45:22.518Z,12.37
2018-11-28T02:47:52.327Z,12.30
2018-11-28T02:50:21.350Z,13.30
2018-11-28T02:52:50.390Z,13.67
2018-11-28T02:55:19.397Z,13.90
2018-11-28T02:57:49.377Z,12.97
2018-11-28T03:00:19.439Z,13.50
2018-11-28T03:02:48.460Z,13.83
2018-11-28T03:05:17.501Z,13.70
2018-11-28T03:07:46.535Z,14.30
2018-11-28T03:10:17.344Z,14.80
2018-11-28T03:12:46.387Z,14.50
2018-11-28T03:15:18.073Z,13.90
2018-11-28T03:17:47.086Z,14.33
2018-11-28T03:20:16.107Z,14.43
2018-11-28T03:22:45.138Z,14.23
2018-11-28T03:25:14.997Z,14.77
2018-11-28T03:27:44.009Z,14.60
2018-11-28T03:30:15.411Z,14.70
2018-11-28T03:32:44.449Z,14.53
2018-11-28T03:35:15.782Z,15.87
2018-11-28T03:37:44.909Z,14.40
2018-11-28T03:40:13.962Z,14.03
2018-11-28T03:42:43.055Z,15.47
2018-11-28T03:45:14.081Z,15.63
2018-11-28T03:47:43.845Z,16.00
2018-11-28T03:50:13.905Z,15.73
2018-11-28T03:52:42.921Z,15.57
2018-11-28T03:55:13.045Z,15.37
2018-11-28T03:57:42.381Z,14.83
2018-11-28T04:00:15.473Z,15.47
2018-11-28T04:02:44.467Z,15.20
2018-11-28T04:05:13.626Z,15.07
2018-11-28T04:07:42.717Z,15.63
2018-11-28T04:10:13.571Z,16.20
2018-11-28T04:12:43.242Z,15.87
2018-11-28T04:15:14.445Z,15.80
2018-11-28T04:17:43.445Z,17.30
2018-11-28T04:20:15.342Z,17.00
2018-11-28T04:22:44.644Z,22.40
2018-11-28T04:25:14.408Z,19.47
2018-11-28T04:27:43.382Z,20.93
2018-11-28T04:30:15.743Z,24.53
2018-11-28T04:32:44.818Z,22.47
2018-11-28T04:35:14.358Z,20.90
2018-11-28T04:37:44.281Z,19.43
2018-11-28T04:40:14.956Z,20.10
2018-11-28T04:42:44.203Z,17.60
2018-11-28T04:45:17.327Z,18.03
2018-11-28T04:47:46.453Z,16.67
2018-11-28T04:50:15.468Z,18.13
2018-11-28T04:52:44.460Z,16.90
2018-11-28T04:55:17.757Z,18.37
2018-11-28T04:57:46.989Z,17.47
2018-11-28T05:00:19.425Z,16.93
2018-11-28T05:02:48.605Z,17.87
2018-11-28T05:05:18.010Z,16.20
2018-11-28T05:07:47.993Z,18.87
2018-11-28T05:10:23.862Z,18.00
2018-11-28T05:12:53.829Z,20.57
2018-11-28T05:15:24.718Z,17.27
2018-11-28T05:17:54.566Z,18.83
2018-11-28T05:20:26.581Z,19.27
2018-11-28T05:22:55.628Z,19.70
2018-11-28T05:25:25.649Z,18.87
2018-11-28T05:27:55.695Z,18.20
2018-11-28T05:30:26.678Z,19.87
2018-11-28T05:32:57.166Z,20.70
2018-11-28T05:35:28.335Z,21.23
2018-11-28T05:37:57.502Z,23.50
2018-11-28T05:40:27.395Z,21.23
2018-11-28T05:42:56.722Z,24.17
2018-11-28T05:45:25.730Z,21.30
2018-11-28T05:47:54.725Z,20.93
2018-11-28T05:50:23.781Z,19.97
2018-11-28T05:52:52.770Z,21.30
2018-11-28T05:55:22.753Z,22.23
2018-11-28T05:57:51.837Z,22.17
2018-11-28T06:00:36.163Z,21.77
2018-11-28T06:03:07.103Z,21.57
2018-11-28T06:05:36.150Z,21.00
2018-11-28T06:08:05.514Z,22.97
2018-11-28T06:10:34.637Z,20.80
2018-11-28T06:13:03.662Z,21.90
2018-11-28T06:15:32.656Z,23.67
2018-11-28T06:18:01.990Z,23.03
2018-11-28T06:20:31.202Z,23.00
2018-11-28T06:23:01.005Z,23.37
2018-11-28T06:25:31.839Z,23.57
2018-11-28T06:28:02.250Z,24.77
2018-11-28T06:30:31.223Z,23.20
2018-11-28T06:33:00.202Z,24.17
2018-11-28T06:35:29.761Z,22.90
2018-11-28T06:37:58.756Z,23.13
2018-11-28T06:40:27.954Z,27.43
2018-11-28T06:42:59.170Z,23.50
2018-11-28T06:45:28.147Z,25.50
2018-11-28T06:47:57.118Z,23.93
2018-11-28T06:50:26.302Z,26.73
2018-11-28T06:52:55.324Z,27.80
2018-11-28T06:55:24.675Z,27.43
2018-11-28T06:57:53.726Z,28.80
2018-11-28T07:00:23.178Z,28.07
2018-11-28T07:02:53.068Z,27.10
2018-11-28T07:05:22.678Z,22.87
2018-11-28T07:07:52.133Z,27.23
2018-11-28T07:10:21.972Z,29.23
2018-11-28T07:12:51.010Z,27.70
2018-11-28T07:15:22.324Z,30.67
2018-11-28T07:17:51.329Z,35.57
2018-11-28T07:20:20.401Z,35.90
2018-11-28T07:22:50.022Z,32.60
2018-11-28T07:25:20.223Z,29.50
2018-11-28T07:27:49.710Z,25.50
2018-11-28T07:30:25.521Z,36.50
2018-11-28T07:33:03.286Z,35.00
2018-11-28T07:35:32.795Z,34.93
2018-11-28T07:38:01.787Z,33.50
2018-11-28T07:40:31.233Z,33.93
2018-11-28T07:43:07.630Z,34.33
2018-11-28T07:45:36.951Z,32.07
2018-11-28T07:48:07.151Z,32.70
2018-11-28T07:50:36.328Z,40.43
2018-11-28T07:53:05.556Z,38.93
2018-11-28T07:55:34.619Z,40.87
2018-11-28T07:58:03.699Z,41.90
2018-11-28T08:00:32.773Z,38.20
2018-11-28T08:03:01.745Z,35.33
2018-11-28T08:05:30.742Z,33.07
2018-11-28T08:07:59.797Z,41.27
2018-11-28T08:10:28.798Z,33.83
2018-11-28T08:12:58.582Z,40.17
2018-11-28T08:15:27.614Z,42.83
2018-11-28T08:17:56.577Z,40.17
2018-11-28T08:20:25.598Z,37.80
2018-11-28T08:22:54.571Z,35.57
2018-11-28T08:25:27.745Z,40.23
2018-11-28T08:27:52.712Z,39.07
2018-11-28T08:30:24.687Z,38.53
2018-11-28T08:32:54.731Z,36.80
2018-11-28T08:35:23.817Z,33.90
2018-11-28T08:37:52.806Z,36.20
2018-11-28T08:40:23.999Z,35.27
2018-11-28T08:42:53.670Z,33.50
2018-11-28T08:45:22.764Z,36.33
2018-11-28T08:47:55.006Z,34.73
2018-11-28T08:50:34.070Z,32.77
2018-11-28T08:53:03.201Z,32.93
2018-11-28T08:55:32.209Z,29.77
2018-11-28T08:58:01.217Z,29.73
2018-11-28T09:00:30.208Z,26.90
2018-11-28T09:02:59.667Z,25.77
2018-11-28T09:05:28.734Z,25.13
2018-11-28T09:07:57.742Z,23.50
2018-11-28T09:10:26.978Z,22.40
2018-11-28T09:12:55.990Z,23.83
2018-11-28T09:15:27.065Z,22.33
2018-11-28T09:17:56.332Z,21.80
2018-11-28T09:20:25.318Z,22.53
2018-11-28T09:22:54.295Z,19.20
2018-11-28T09:25:23.315Z,21.17
2018-11-28T09:27:53.533Z,18.87
2018-11-28T09:30:22.727Z,17.90
2018-11-28T09:32:52.061Z,18.27
2018-11-28T09:35:21.122Z,18.50
2018-11-28T09:37:50.122Z,16.43
2018-11-28T09:40:21.186Z,17.77
2018-11-28T09:42:51.208Z,14.70
2018-11-28T09:45:20.640Z,13.60
2018-11-28T09:47:49.622Z,12.70
2018-11-28T09:50:20.485Z,12.03
2018-11-28T09:52:49.557Z,11.93
2018-11-28T09:55:21.672Z,10.97
2018-11-28T09:57:50.670Z,11.37
2018-11-28T10:00:21.409Z,11.53
2018-11-28T10:02:51.503Z,10.70
2018-11-28T10:05:21.724Z,10.90
2018-11-28T10:07:50.818Z,10.40
2018-11-28T10:10:19.810Z,10.37
2018-11-28T10:12:48.831Z,11.03
2018-11-28T10:15:18.918Z,10.80
2018-11-28T10:17:48.070Z,10.90
2018-11-28T10:20:17.694Z,11.03
2018-11-28T10:22:47.357Z,9.77
2018-11-28T10:25:18.223Z,10.73
2018-11-28T10:27:49.646Z,10.93
2018-11-28T10:30:19.829Z,10.27
2018-11-28T10:32:49.437Z,10.53
2018-11-28T10:35:20.536Z,9.97
2018-11-28T10:37:49.551Z,10.10
2018-11-28T10:40:19.421Z,9.60
2018-11-28T10:42:51.719Z,8.23
2018-11-28T10:45:21.790Z,8.10
2018-11-28T10:47:50.847Z,7.70
2018-11-28T10:50:19.885Z,7.83
2018-11-28T10:52:48.893Z,7.37
2018-11-28T10:55:18.978Z,7.60
2018-11-28T10:57:48.009Z,7.23
2018-11-28T11:00:24.429Z,7.30
2018-11-28T11:02:58.711Z,6.53
2018-11-28T11:05:33.314Z,7.23
2018-11-28T11:08:07.741Z,6.93
2018-11-28T11:10:43.483Z,7.40
2018-11-28T11:13:16.724Z,7.50
2018-11-28T11:15:51.355Z,7.23
2018-11-28T11:18:20.424Z,6.87
2018-11-28T11:20:49.587Z,7.57
2018-11-28T11:23:18.659Z,6.80
2018-11-28T11:25:47.654Z,6.30
2018-11-28T11:28:16.781Z,6.27
2018-11-28T11:30:45.815Z,6.13
2018-11-28T11:33:14.958Z,6.67
2018-11-28T11:35:44.169Z,7.03
2018-11-28T11:38:13.169Z,6.93
2018-11-28T11:40:42.775Z,7.27
2018-11-28T11:43:11.901Z,6.63
2018-11-28T11:45:40.888Z,7.83
2018-11-28T11:48:09.896Z,7.53
2018-11-28T11:50:38.948Z,7.83
2018-11-28T11:53:08.236Z,8.50
2018-11-28T11:55:37.412Z,7.77
2018-11-28T11:58:06.931Z,7.63
2018-11-28T12:00:37.468Z,7.93
2018-11-28T12:03:09.339Z,7.60
2018-11-28T12:05:39.047Z,6.70
2018-11-28T12:08:08.191Z,7.13
2018-11-28T12:10:37.495Z,8.07
2018-11-28T12:13:06.544Z,6.90
2018-11-28T12:15:35.807Z,7.57
2018-11-28T12:18:04.614Z,7.43
2018-11-28T12:20:39.366Z,7.83
2018-11-28T12:23:08.744Z,7.20
2018-11-28T12:25:37.763Z,7.50
2018-11-28T12:28:07.430Z,7.43
2018-11-28T12:30:36.685Z,6.90
2018-11-28T12:33:06.289Z,7.03
2018-11-28T12:35:35.374Z,6.87
2018-11-28T12:38:04.568Z,7.10
2018-11-28T12:40:34.669Z,7.17
2018-11-28T12:43:04.734Z,7.30
2018-11-28T12:45:33.946Z,6.83
2018-11-28T12:48:02.997Z,7.47
2018-11-28T12:50:32.334Z,6.53
2018-11-28T12:53:03.336Z,6.80
2018-11-28T12:55:34.926Z,6.97
2018-11-28T12:58:04.108Z,7.57
2018-11-28T13:00:34.751Z,7.10
2018-11-28T13:03:04.471Z,6.87
2018-11-28T13:05:33.524Z,7.63
2018-11-28T13:08:03.437Z,6.73
2018-11-28T13:10:35.073Z,7.03
2018-11-28T13:13:04.721Z,7.03
2018-11-28T13:15:33.741Z,8.10
2018-11-28T13:18:02.793Z,7.00
2018-11-28T13:20:32.714Z,7.43
2018-11-28T13:23:03.579Z,6.80
2018-11-28T13:25:32.639Z,7.00
2018-11-28T13:28:01.657Z,6.50
2018-11-28T13:30:30.918Z,6.83
2018-11-28T13:32:59.909Z,6.77
2018-11-28T13:35:28.931Z,6.40
2018-11-28T13:38:13.338Z,6.87
2018-11-28T13:40:42.887Z,6.87
2018-11-28T13:43:12.056Z,7.13
2018-11-28T13:45:43.805Z,6.07
2018-11-28T13:48:14.042Z,6.80
2018-11-28T13:50:43.086Z,6.10
2018-11-28T13:53:14.021Z,6.60
2018-11-28T13:56:57.303Z,6.47
2018-11-28T13:58:20.947Z,6.47
2018-11-28T14:00:49.988Z,6.70
2018-11-28T14:03:19.063Z,6.93
2018-11-28T14:05:48.745Z,7.33
2018-11-28T14:08:17.821Z,6.87
2018-11-28T14:10:47.057Z,6.63
2018-11-28T14:13:16.078Z,6.87
2018-11-28T14:15:45.082Z,6.80
2018-11-28T14:18:15.597Z,6.70
2018-11-28T14:20:45.207Z,7.03
2018-11-28T14:23:14.208Z,7.37
2018-11-28T14:25:43.241Z,7.80
2018-11-28T14:28:12.442Z,7.03
2018-11-28T14:30:42.046Z,7.30
2018-11-28T14:33:12.306Z,7.47
2018-11-28T14:35:41.341Z,7.70
2018-11-28T14:38:10.304Z,7.80
2018-11-28T14:40:39.405Z,8.43
2018-11-28T14:43:08.735Z,8.57
2018-11-28T14:45:37.855Z,8.30
2018-11-28T14:48:07.306Z,8.90
2018-11-28T14:50:36.499Z,8.03
2018-11-28T14:53:05.560Z,7.80
2018-11-28T14:55:38.237Z,8.77
2018-11-28T14:58:08.751Z,8.23
2018-11-28T15:00:37.806Z,8.50
2018-11-28T15:03:11.454Z,8.23
2018-11-28T15:05:48.822Z,8.57
2018-11-28T15:08:19.371Z,8.00
2018-11-28T15:10:59.882Z,7.43
2018-11-28T15:13:28.876Z,7.17
2018-11-28T15:15:57.883Z,7.73
2018-11-28T15:18:27.007Z,8.13
2018-11-28T15:20:56.066Z,8.30
2018-11-28T15:23:25.109Z,8.63
2018-11-28T15:25:54.265Z,7.57
2018-11-28T15:28:23.301Z,8.10
2018-11-28T15:30:52.275Z,7.90
2018-11-28T15:33:21.371Z,8.03
2018-11-28T15:35:50.363Z,7.73
2018-11-28T15:38:19.325Z,8.43
2018-11-28T15:40:48.354Z,9.28
2018-11-28T15:43:17.326Z,8.23
2018-11-28T15:45:46.346Z,6.87
2018-11-28T15:48:15.568Z,7.70
2018-11-28T15:50:44.557Z,7.60
2018-11-28T15:53:13.536Z,8.07
2018-11-28T15:55:43.009Z,7.40
2018-11-28T15:58:11.994Z,7.37
2018-11-28T16:00:41.014Z,6.97
2018-11-28T16:03:11.033Z,7.30
2018-11-28T16:05:40.561Z,7.40
2018-11-28T16:08:09.590Z,7.30
2018-11-28T16:10:44.329Z,7.50
2018-11-28T16:13:15.011Z,7.93
2018-11-28T16:15:46.964Z,7.53
2018-11-28T16:18:15.942Z,7.30
2018-11-28T16:20:44.927Z,7.57
2018-11-28T16:23:13.942Z,7.57
2018-11-28T16:25:43.346Z,7.67
2018-11-28T16:28:12.629Z,7.80
2018-11-28T16:30:41.508Z,8.07
2018-11-28T16:33:10.940Z,7.53
2018-11-28T16:35:39.934Z,7.33
2018-11-28T16:38:08.999Z,7.97
2018-11-28T16:40:38.013Z,8.47
2018-11-28T16:43:07.322Z,8.77
2018-11-28T16:45:36.423Z,8.40
2018-11-28T16:48:06.533Z,7.73
2018-11-28T16:50:35.519Z,8.40
2018-11-28T16:53:04.522Z,8.13
2018-11-28T16:55:34.398Z,8.53
2018-11-28T16:58:03.826Z,8.40
2018-11-28T17:00:33.225Z,8.53
2018-11-28T17:03:02.197Z,8.90
2018-11-28T17:05:31.217Z,9.80
2018-11-28T17:08:00.216Z,10.40
2018-11-28T17:10:29.866Z,10.20
2018-11-28T17:12:59.505Z,10.30
2018-11-28T17:15:28.503Z,10.13
2018-11-28T17:17:57.497Z,10.30
2018-11-28T17:20:28.173Z,10.10
2018-11-28T17:22:58.437Z,10.50
2018-11-28T17:25:29.893Z,10.67
2018-11-28T17:27:58.966Z,10.63
2018-11-28T17:30:29.840Z,10.50
2018-11-28T17:32:58.871Z,10.67
2018-11-28T17:35:27.865Z,10.27
2018-11-28T17:37:56.902Z,10.27
2018-11-28T17:40:28.297Z,11.30
2018-11-28T17:42:58.494Z,11.03
2018-11-28T17:45:28.209Z,10.27
2018-11-28T17:47:57.215Z,10.63
2018-11-28T17:50:26.885Z,11.00
2018-11-28T17:53:01.518Z,10.33
2018-11-28T17:55:32.846Z,10.87
2018-11-28T17:58:02.615Z,9.53
2018-11-28T18:00:31.840Z,10.50
2018-11-28T18:05:46.974Z,9.23
2018-11-28T18:08:16.000Z,9.27
2018-11-28T18:10:45.029Z,9.57
2018-11-28T18:13:15.113Z,9.73
2018-11-28T18:15:50.957Z,10.23
2018-11-28T18:18:22.597Z,10.63
2018-11-28T18:20:51.528Z,10.10
2018-11-28T18:23:20.562Z,10.27
2018-11-28T18:25:49.842Z,10.30
2018-11-28T18:28:18.819Z,10.90
2018-11-28T18:30:47.824Z,11.10
2018-11-28T18:33:17.729Z,11.37
2018-11-28T18:35:47.162Z,11.83
2018-11-28T18:38:16.138Z,11.53
2018-11-28T18:40:45.254Z,11.57
2018-11-28T18:43:14.227Z,11.20
2018-11-28T18:45:45.222Z,11.23
2018-11-28T18:48:14.223Z,12.53
2018-11-28T18:50:43.211Z,11.90
2018-11-28T18:53:12.456Z,11.73
2018-11-28T18:55:41.442Z,11.50
2018-11-28T18:58:11.397Z,11.57
2018-11-28T19:00:40.817Z,11.67
2018-11-28T19:03:09.894Z,12.50
2018-11-28T19:05:39.502Z,12.63
2018-11-28T19:08:08.802Z,12.40
2018-11-28T19:10:37.773Z,11.27
2018-11-28T19:13:06.783Z,12.33
2018-11-28T19:15:35.866Z,12.27
2018-11-28T19:18:05.099Z,12.93
2018-11-28T19:20:34.085Z,12.40
2018-11-28T19:23:03.206Z,12.83
2018-11-28T19:25:32.177Z,13.00
2018-11-28T19:28:01.146Z,13.03
2018-11-28T19:30:32.559Z,12.40
2018-11-28T19:33:01.515Z,13.03
2018-11-28T19:35:30.530Z,15.17
2018-11-28T19:37:59.675Z,14.03
2018-11-28T19:41:04.171Z,15.00
2018-11-28T19:43:33.133Z,15.03
2018-11-28T19:46:02.093Z,15.17
2018-11-28T19:48:31.152Z,16.10
2018-11-28T19:51:00.182Z,16.73
2018-11-28T19:53:29.221Z,16.43
2018-11-28T19:55:58.234Z,17.30
2018-11-28T19:58:27.259Z,16.60
2018-11-28T20:00:57.051Z,18.33
2018-11-28T20:03:26.041Z,17.90
2018-11-28T20:05:55.372Z,19.20
2018-11-28T20:08:24.406Z,18.23
2018-11-28T20:10:53.383Z,18.83
2018-11-28T20:13:22.390Z,19.00
2018-11-28T20:15:52.431Z,19.33
2018-11-28T20:18:21.479Z,20.20
2018-11-28T20:20:50.972Z,19.63
2018-11-28T20:23:19.576Z,20.47
2018-11-28T20:25:48.590Z,20.63
2018-11-28T20:28:17.685Z,20.90
2018-11-28T20:30:46.674Z,21.17
2018-11-28T20:33:16.723Z,20.30
2018-11-28T20:35:48.072Z,21.57
2018-11-28T20:38:21.625Z,22.80
2018-11-28T20:40:50.591Z,22.60
2018-11-28T20:43:19.589Z,22.97
2018-11-28T20:45:48.654Z,24.13
2018-11-28T20:48:17.612Z,23.53
2018-11-28T20:50:46.663Z,23.87
2018-11-28T20:53:17.054Z,25.37
2018-11-28T20:55:46.412Z,23.70
2018-11-28T20:58:15.418Z,24.63
2018-11-28T21:00:44.384Z,24.57
2018-11-28T21:03:13.406Z,25.60
2018-11-28T21:05:42.411Z,26.77
2018-11-28T21:08:11.465Z,25.23
2018-11-28T21:10:41.082Z,26.80
2018-11-28T21:13:13.844Z,25.73
2018-11-28T21:15:44.223Z,26.00
2018-11-28T21:18:13.585Z,26.57
2018-11-28T21:20:43.998Z,26.87
2018-11-28T21:23:14.530Z,26.90
2018-11-28T21:25:43.527Z,26.93
2018-11-28T21:28:12.582Z,27.23
2018-11-28T21:30:41.592Z,29.13
2018-11-28T21:33:12.035Z,29.13
2018-11-28T21:35:44.001Z,28.53
2018-11-28T21:38:12.998Z,29.13
2018-11-28T21:40:41.994Z,30.27
2018-11-28T21:43:10.961Z,29.30
2018-11-28T21:45:40.072Z,29.13
2018-11-28T21:48:09.101Z,28.70
2018-11-28T21:50:38.074Z,28.67
2018-11-28T21:53:08.494Z,28.17
2018-11-28T21:55:37.537Z,29.67
2018-11-28T21:58:06.667Z,29.33
2018-11-28T22:00:36.703Z,29.70
2018-11-28T22:03:06.850Z,29.90
2018-11-28T22:05:35.951Z,29.47
2018-11-28T22:08:05.122Z,35.30
2018-11-28T22:10:34.137Z,29.63
2018-11-28T22:13:03.119Z,29.20
2018-11-28T22:15:32.106Z,29.47
2018-11-28T22:18:01.088Z,33.02
2018-11-28T22:20:30.090Z,29.73
2018-11-28T22:22:59.976Z,28.67
2018-11-28T22:25:29.888Z,28.57
2018-11-28T22:27:58.910Z,28.57
2018-11-28T22:30:29.125Z,26.87
2018-11-28T22:32:58.611Z,28.97
2018-11-28T22:35:27.622Z,28.03
2018-11-28T22:37:57.079Z,28.70
2018-11-28T22:40:30.345Z,28.47
2018-11-28T22:42:59.411Z,27.33
2018-11-28T22:45:30.764Z,26.10
2018-11-28T22:47:59.769Z,28.13
2018-11-28T22:50:29.638Z,27.80
2018-11-28T22:53:00.531Z,27.27
2018-11-28T22:55:29.533Z,28.87
2018-11-28T22:57:58.506Z,27.50
2018-11-28T23:00:33.280Z,27.47
2018-11-28T23:03:04.890Z,28.73
2018-11-28T23:05:37.041Z,28.40
2018-11-28T23:08:07.886Z,27.67
2018-11-28T23:10:37.413Z,27.73
2018-11-28T23:13:07.187Z,29.33
2018-11-28T23:15:36.221Z,29.37
2018-11-28T23:18:05.499Z,27.97
2018-11-28T23:20:34.472Z,29.03
2018-11-28T23:23:03.483Z,27.53
2018-11-28T23:25:33.586Z,28.73
2018-11-28T23:28:02.676Z,30.67
2018-11-28T23:30:31.701Z,30.23
2018-11-28T23:33:00.788Z,30.17
2018-11-28T23:35:29.787Z,29.53
2018-11-28T23:37:58.786Z,29.27
2018-11-28T23:40:27.814Z,30.30
2018-11-28T23:42:56.911Z,31.13
2018-11-28T23:45:26.527Z,31.70
2018-11-28T23:47:55.513Z,32.37
2018-11-28T23:50:26.144Z,31.93
2018-11-28T23:52:55.729Z,30.40
2018-11-28T23:55:27.561Z,30.90
2018-11-28T23:57:56.655Z,33.13
